createdAt,value
2022-12-03T00:00:21.981Z,2.31
2022-12-03T00:03:24.730Z,2.23
2022-12-03T00:06:31.464Z,2.35
2022-12-03T00:09:37.174Z,2.37
2022-12-03T00:12:39.314Z,2.34
2022-12-03T00:15:41.871Z,2.42
2022-12-03T00:18:44.154Z,2.41
2022-12-03T00:21:46.626Z,2.44
2022-12-03T00:24:48.821Z,2.46
2022-12-03T00:27:51.327Z,2.34
2022-12-03T00:30:54.267Z,2.40
2022-12-03T00:33:56.772Z,2.44
2022-12-03T00:36:59.068Z,2.44
2022-12-03T00:40:02.636Z,2.41
2022-12-03T00:43:04.819Z,2.44
2022-12-03T00:46:07.505Z,2.37
2022-12-03T00:49:10.166Z,2.28
2022-12-03T00:52:12.703Z,2.33
2022-12-03T00:55:14.982Z,2.38
2022-12-03T00:58:18.259Z,2.33
2022-12-03T01:01:20.658Z,2.33
2022-12-03T01:04:23.375Z,2.33
2022-12-03T01:07:25.648Z,2.34
2022-12-03T01:10:28.179Z,2.39
2022-12-03T01:13:30.499Z,2.38
2022-12-03T01:16:33.518Z,2.34
2022-12-03T01:19:35.977Z,2.36
2022-12-03T01:22:38.494Z,2.37
2022-12-03T01:25:40.722Z,2.30
2022-12-03T01:28:43.437Z,2.33
2022-12-03T01:32:04.196Z,2.32
2022-12-03T01:35:07.172Z,2.31
2022-12-03T01:38:09.434Z,2.36
2022-12-03T01:41:12.195Z,2.30
2022-12-03T01:44:19.505Z,2.32
2022-12-03T01:47:24.611Z,2.39
2022-12-03T01:50:31.796Z,2.42
2022-12-03T01:53:34.540Z,2.49
2022-12-03T01:56:36.827Z,2.43
2022-12-03T01:59:39.615Z,2.31
2022-12-03T02:02:43.389Z,2.30
2022-12-03T02:05:45.834Z,2.40
2022-12-03T02:08:48.577Z,2.44
2022-12-03T02:11:51.034Z,2.37
2022-12-03T02:14:53.743Z,2.41
2022-12-03T02:17:56.682Z,2.48
2022-12-03T02:21:06.449Z,2.50
2022-12-03T02:24:16.262Z,2.48
2022-12-03T02:27:18.602Z,2.44
2022-12-03T02:30:22.451Z,2.38
2022-12-03T02:33:24.930Z,2.38
2022-12-03T02:36:27.607Z,2.41
2022-12-03T02:39:30.800Z,2.40
2022-12-03T02:42:36.046Z,2.39
2022-12-03T02:45:46.003Z,2.39
2022-12-03T02:48:48.978Z,2.43
2022-12-03T02:51:51.409Z,2.48
2022-12-03T02:54:54.382Z,2.45
2022-12-03T02:57:57.258Z,2.42
2022-12-03T03:01:00.975Z,2.32
2022-12-03T03:04:04.519Z,2.31
2022-12-03T03:07:07.506Z,2.31
2022-12-03T03:10:12.374Z,2.31
2022-12-03T03:13:16.989Z,2.43
2022-12-03T03:16:19.253Z,2.43
2022-12-03T03:19:23.263Z,2.49
2022-12-03T03:22:34.145Z,2.44
2022-12-03T03:25:37.593Z,2.42
2022-12-03T03:28:45.040Z,2.48
2022-12-03T03:31:47.989Z,2.44
2022-12-03T03:34:50.402Z,2.38
2022-12-03T03:37:53.724Z,2.42
2022-12-03T03:40:56.382Z,2.51
2022-12-03T03:43:59.012Z,2.52
2022-12-03T03:47:01.764Z,2.46
2022-12-03T03:50:04.821Z,2.54
2022-12-03T03:53:07.116Z,2.53
2022-12-03T03:56:10.635Z,2.51
2022-12-03T03:59:13.593Z,2.55
2022-12-03T04:02:19.922Z,2.41
2022-12-03T04:05:23.298Z,2.43
2022-12-03T04:08:25.616Z,2.45
2022-12-03T04:11:46.792Z,2.38
2022-12-03T04:14:48.998Z,2.42
2022-12-03T04:18:10.282Z,2.57
2022-12-03T04:21:35.543Z,2.51
2022-12-03T04:24:37.999Z,2.55
2022-12-03T04:27:58.645Z,2.58
2022-12-03T04:31:21.215Z,2.50
2022-12-03T04:34:42.330Z,2.69
2022-12-03T04:37:44.843Z,2.71
2022-12-03T04:41:04.239Z,2.73
2022-12-03T04:44:25.740Z,2.67
2022-12-03T04:47:27.997Z,2.64
2022-12-03T04:50:30.474Z,2.55
2022-12-03T04:53:35.366Z,2.57
2022-12-03T04:56:38.640Z,2.49
2022-12-03T04:59:41.151Z,2.45
2022-12-03T05:02:43.704Z,2.45
2022-12-03T05:05:46.257Z,2.53
2022-12-03T05:08:48.874Z,2.52
2022-12-03T05:11:51.184Z,2.37
2022-12-03T05:14:53.957Z,2.45
2022-12-03T05:17:56.369Z,2.28
2022-12-03T05:20:58.839Z,2.17
2022-12-03T05:24:01.268Z,2.08
2022-12-03T05:27:03.790Z,2.20
2022-12-03T05:30:06.406Z,2.22
2022-12-03T05:33:08.870Z,2.29
2022-12-03T05:36:11.102Z,2.25
2022-12-03T05:39:13.526Z,2.19
2022-12-03T05:42:34.560Z,2.22
2022-12-03T05:45:38.520Z,2.24
2022-12-03T05:48:48.060Z,2.16
2022-12-03T05:51:55.097Z,2.11
2022-12-03T05:55:00.435Z,2.15
2022-12-03T05:58:04.538Z,2.22
2022-12-03T06:01:06.805Z,2.29
2022-12-03T06:04:09.423Z,2.26
2022-12-03T06:07:14.134Z,2.23
2022-12-03T06:10:19.334Z,2.25
2022-12-03T06:13:21.618Z,2.23
2022-12-03T06:16:24.102Z,2.34
2022-12-03T06:19:26.347Z,2.24
2022-12-03T06:22:28.874Z,2.34
2022-12-03T06:25:31.133Z,2.37
2022-12-03T06:28:33.637Z,2.37
2022-12-03T06:31:35.965Z,2.44
2022-12-03T06:34:38.532Z,2.66
2022-12-03T06:37:40.694Z,2.60
2022-12-03T06:40:43.154Z,2.57
2022-12-03T06:43:45.338Z,2.63
2022-12-03T06:46:50.457Z,2.68
2022-12-03T06:49:52.733Z,2.78
2022-12-03T06:52:55.195Z,2.72
2022-12-03T06:55:57.415Z,2.65
2022-12-03T06:59:00.230Z,2.71
2022-12-03T07:02:02.607Z,2.71
2022-12-03T07:05:05.565Z,2.93
2022-12-03T07:08:07.977Z,2.87
2022-12-03T07:11:30.482Z,2.85
2022-12-03T07:14:32.825Z,2.92
2022-12-03T07:17:35.366Z,3.05
2022-12-03T07:20:37.864Z,3.06
2022-12-03T07:23:40.546Z,3.12
2022-12-03T07:26:42.805Z,3.13
2022-12-03T07:29:45.620Z,3.18
2022-12-03T07:32:48.323Z,3.09
2022-12-03T07:35:50.894Z,3.15
2022-12-03T07:38:53.183Z,3.08
2022-12-03T07:41:55.766Z,3.10
2022-12-03T07:44:57.991Z,3.12
2022-12-03T07:48:00.521Z,3.19
2022-12-03T07:51:02.722Z,3.29
2022-12-03T07:54:05.370Z,3.30
2022-12-03T07:57:07.624Z,3.25
2022-12-03T08:00:10.706Z,3.26
2022-12-03T08:03:13.315Z,3.44
2022-12-03T08:06:15.597Z,3.60
2022-12-03T08:09:18.294Z,3.66
2022-12-03T08:12:23.886Z,3.75
2022-12-03T08:15:30.126Z,3.87
2022-12-03T08:18:36.144Z,4.02
2022-12-03T08:21:39.155Z,4.06
2022-12-03T08:24:41.428Z,4.15
2022-12-03T08:27:43.888Z,4.21
2022-12-03T08:31:05.020Z,4.23
2022-12-03T08:34:27.827Z,4.15
2022-12-03T08:37:30.273Z,4.32
2022-12-03T08:40:35.323Z,4.41
2022-12-03T08:43:42.759Z,4.49
2022-12-03T08:46:45.294Z,4.55
2022-12-03T08:49:51.508Z,4.67
2022-12-03T08:52:56.014Z,4.76
2022-12-03T08:56:02.908Z,4.58
2022-12-03T08:59:14.643Z,4.70
2022-12-03T09:02:22.406Z,4.86
2022-12-03T09:05:33.777Z,4.98
2022-12-03T09:08:36.120Z,4.95
2022-12-03T09:11:38.980Z,5.08
2022-12-03T09:14:41.175Z,5.19
2022-12-03T09:17:43.624Z,5.27
2022-12-03T09:20:45.903Z,5.19
2022-12-03T09:23:48.958Z,5.21
2022-12-03T09:26:51.364Z,5.35
2022-12-03T09:29:53.925Z,5.35
2022-12-03T09:32:56.309Z,5.23
2022-12-03T09:35:59.430Z,5.01
2022-12-03T09:39:01.724Z,5.15
2022-12-03T09:42:04.448Z,5.62
2022-12-03T09:45:10.805Z,5.61
2022-12-03T09:48:15.133Z,5.74
2022-12-03T09:51:17.501Z,6.05
2022-12-03T09:54:24.558Z,5.85
2022-12-03T09:57:26.741Z,5.89
2022-12-03T10:00:30.271Z,6.12
2022-12-03T10:03:32.907Z,6.11
2022-12-03T10:06:35.248Z,6.13
2022-12-03T10:09:37.891Z,6.51
2022-12-03T10:12:40.217Z,6.78
2022-12-03T10:15:42.786Z,6.49
2022-12-03T10:18:47.543Z,6.87
2022-12-03T10:21:50.449Z,7.27
2022-12-03T10:25:19.199Z,7.45
2022-12-03T10:28:32.261Z,7.67
2022-12-03T10:31:37.323Z,7.89
2022-12-03T10:34:40.858Z,7.74
2022-12-03T10:38:02.527Z,7.41
2022-12-03T10:41:20.298Z,7.02
2022-12-03T10:44:25.132Z,7.09
2022-12-03T10:47:27.714Z,6.59
2022-12-03T10:50:30.210Z,7.02
2022-12-03T10:53:35.615Z,7.23
2022-12-03T10:56:37.839Z,7.70
2022-12-03T10:59:41.622Z,7.92
2022-12-03T11:02:44.391Z,7.95
2022-12-03T11:05:46.929Z,8.06
2022-12-03T11:08:57.870Z,8.31
2022-12-03T11:12:08.094Z,7.98
2022-12-03T11:15:16.616Z,8.22
2022-12-03T11:18:34.473Z,8.13
2022-12-03T11:21:56.715Z,7.82
2022-12-03T11:25:18.052Z,7.85
2022-12-03T11:28:20.315Z,7.66
2022-12-03T11:31:43.357Z,7.88
2022-12-03T11:34:45.771Z,7.73
2022-12-03T11:37:48.307Z,7.73
2022-12-03T11:41:09.125Z,7.97
2022-12-03T11:44:31.226Z,7.56
2022-12-03T11:47:37.031Z,7.31
2022-12-03T11:50:40.612Z,7.39
2022-12-03T11:53:43.559Z,7.31
2022-12-03T11:56:48.934Z,7.30
2022-12-03T12:00:01.879Z,7.28
2022-12-03T12:03:21.498Z,7.32
2022-12-03T12:06:24.178Z,7.39
2022-12-03T12:09:45.332Z,7.28
2022-12-03T12:12:54.659Z,7.32
2022-12-03T12:16:20.289Z,7.28
2022-12-03T12:19:36.420Z,7.09
2022-12-03T12:22:39.325Z,7.24
2022-12-03T12:25:42.057Z,7.34
2022-12-03T12:28:44.372Z,7.26
2022-12-03T12:31:53.648Z,7.29
2022-12-03T12:35:02.327Z,7.33
2022-12-03T12:38:07.616Z,7.14
2022-12-03T12:41:09.911Z,7.17
2022-12-03T12:44:15.084Z,7.14
2022-12-03T12:47:17.322Z,7.06
2022-12-03T12:50:20.209Z,6.95
2022-12-03T12:53:22.915Z,6.82
2022-12-03T12:56:32.443Z,6.58
2022-12-03T12:59:34.755Z,6.58
2022-12-03T13:02:41.113Z,6.55
2022-12-03T13:05:45.079Z,6.45
2022-12-03T13:08:48.770Z,6.56
2022-12-03T13:11:58.512Z,6.49
2022-12-03T13:15:00.985Z,6.44
2022-12-03T13:18:18.670Z,6.50
2022-12-03T13:21:22.044Z,6.55
2022-12-03T13:24:25.978Z,6.46
2022-12-03T13:27:29.751Z,6.47
2022-12-03T13:30:33.155Z,6.54
2022-12-03T13:33:35.654Z,6.64
2022-12-03T13:36:44.705Z,6.60
2022-12-03T13:39:52.278Z,6.54
2022-12-03T13:42:55.140Z,6.48
2022-12-03T13:45:58.444Z,6.47
2022-12-03T13:49:02.209Z,6.43
2022-12-03T13:52:10.077Z,6.55
2022-12-03T13:55:22.676Z,6.56
2022-12-03T13:58:25.122Z,6.44
2022-12-03T14:01:28.261Z,6.36
2022-12-03T14:04:30.923Z,6.39
2022-12-03T14:07:33.187Z,6.36
2022-12-03T14:10:35.894Z,6.43
2022-12-03T14:13:38.078Z,6.56
2022-12-03T14:16:41.524Z,6.48
2022-12-03T14:19:43.945Z,6.48
2022-12-03T14:22:46.409Z,6.36
2022-12-03T14:25:48.685Z,6.37
2022-12-03T14:28:51.190Z,6.27
2022-12-03T14:31:54.707Z,6.27
2022-12-03T14:35:01.102Z,6.26
2022-12-03T14:38:05.135Z,6.14
2022-12-03T14:41:27.834Z,6.11
2022-12-03T14:44:30.086Z,6.09
2022-12-03T14:47:32.645Z,6.10
2022-12-03T14:50:35.561Z,6.06
2022-12-03T14:53:38.585Z,5.94
2022-12-03T14:56:40.826Z,5.92
2022-12-03T14:59:44.248Z,5.85
2022-12-03T15:02:47.866Z,5.76
2022-12-03T15:05:50.524Z,5.74
2022-12-03T15:08:52.784Z,5.78
2022-12-03T15:11:55.353Z,5.67
2022-12-03T15:14:57.502Z,5.61
2022-12-03T15:18:00.034Z,5.58
2022-12-03T15:21:02.288Z,5.47
2022-12-03T15:24:04.952Z,5.34
2022-12-03T15:27:07.131Z,5.32
2022-12-03T15:30:09.910Z,5.21
2022-12-03T15:33:12.341Z,5.18
2022-12-03T15:36:14.921Z,5.07
2022-12-03T15:39:17.328Z,5.04
2022-12-03T15:42:19.863Z,5.09
2022-12-03T15:45:22.098Z,4.93
2022-12-03T15:48:24.558Z,4.93
2022-12-03T15:51:26.873Z,4.87
2022-12-03T15:54:29.349Z,4.73
2022-12-03T15:57:33.087Z,4.63
2022-12-03T16:00:35.617Z,4.58
2022-12-03T16:03:38.189Z,4.49
2022-12-03T16:06:40.377Z,4.42
2022-12-03T16:09:43.044Z,4.31
2022-12-03T16:12:45.293Z,4.22
2022-12-03T16:15:47.925Z,4.11
2022-12-03T16:18:50.090Z,4.13
2022-12-03T16:21:54.739Z,4.00
2022-12-03T16:24:56.947Z,3.89
2022-12-03T16:27:59.462Z,3.82
2022-12-03T16:31:02.219Z,3.70
2022-12-03T16:34:07.386Z,3.67
2022-12-03T16:37:10.504Z,3.63
2022-12-03T16:40:22.261Z,3.60
2022-12-03T16:43:24.399Z,3.51
2022-12-03T16:46:27.080Z,3.44
2022-12-03T16:49:29.418Z,3.43
2022-12-03T16:52:31.945Z,3.36
2022-12-03T16:55:34.254Z,3.27
2022-12-03T16:58:36.926Z,3.25
2022-12-03T17:01:39.286Z,3.20
2022-12-03T17:04:41.835Z,3.16
2022-12-03T17:07:44.076Z,3.25
2022-12-03T17:10:46.750Z,3.20
2022-12-03T17:13:49.574Z,3.18
2022-12-03T17:16:52.081Z,3.16
2022-12-03T17:19:54.686Z,3.14
2022-12-03T17:22:57.926Z,3.14
2022-12-03T17:26:00.164Z,3.21
2022-12-03T17:29:03.135Z,3.17
2022-12-03T17:32:06.643Z,3.27
2022-12-03T17:35:09.956Z,3.19
2022-12-03T17:38:12.210Z,3.21
2022-12-03T17:41:14.728Z,3.21
2022-12-03T17:44:21.025Z,3.21
2022-12-03T17:47:23.970Z,3.24
2022-12-03T17:50:26.338Z,3.23
2022-12-03T17:53:28.806Z,3.28
2022-12-03T17:56:31.110Z,3.29
2022-12-03T17:59:33.697Z,3.43
2022-12-03T18:02:35.960Z,3.40
2022-12-03T18:05:38.474Z,3.41
2022-12-03T18:08:41.221Z,3.34
2022-12-03T18:11:43.847Z,3.27
2022-12-03T18:14:46.099Z,3.30
2022-12-03T18:17:48.631Z,3.38
2022-12-03T18:20:52.499Z,3.30
2022-12-03T18:23:55.676Z,3.34
2022-12-03T18:26:57.934Z,3.26
2022-12-03T18:30:00.529Z,3.37
2022-12-03T18:33:02.829Z,3.34
2022-12-03T18:36:06.739Z,3.30
2022-12-03T18:39:18.401Z,3.24
2022-12-03T18:42:21.802Z,3.17
2022-12-03T18:45:24.603Z,3.08
2022-12-03T18:48:27.134Z,3.04
2022-12-03T18:51:29.565Z,2.99
2022-12-03T18:54:32.159Z,3.00
2022-12-03T18:57:34.421Z,3.00
2022-12-03T19:00:38.197Z,2.98
2022-12-03T19:03:40.580Z,3.01
2022-12-03T19:06:43.061Z,2.95
2022-12-03T19:09:45.714Z,2.89
2022-12-03T19:12:48.340Z,2.85
2022-12-03T19:15:51.839Z,2.84
2022-12-03T19:18:55.135Z,2.78
2022-12-03T19:21:57.395Z,2.75
2022-12-03T19:24:59.899Z,2.68
2022-12-03T19:28:02.135Z,2.66
2022-12-03T19:31:09.005Z,2.76
2022-12-03T19:34:11.580Z,2.73
2022-12-03T19:37:14.189Z,2.88
2022-12-03T19:40:16.552Z,2.76
2022-12-03T19:43:19.056Z,2.72
2022-12-03T19:46:22.431Z,2.78
2022-12-03T19:49:25.008Z,2.70
2022-12-03T19:52:27.261Z,2.74
2022-12-03T19:55:29.727Z,2.84
2022-12-03T19:58:31.986Z,2.81
2022-12-03T20:01:35.608Z,2.75
2022-12-03T20:04:38.317Z,2.63
2022-12-03T20:07:40.594Z,2.59
2022-12-03T20:10:43.262Z,2.73
2022-12-03T20:13:45.618Z,2.61
2022-12-03T20:16:48.431Z,2.58
2022-12-03T20:19:51.417Z,2.53
2022-12-03T20:22:54.323Z,2.69
2022-12-03T20:25:56.677Z,2.69
2022-12-03T20:28:59.351Z,2.73
2022-12-03T20:32:02.038Z,2.73
2022-12-03T20:35:04.888Z,2.75
2022-12-03T20:38:07.160Z,2.78
2022-12-03T20:41:11.556Z,3.01
2022-12-03T20:44:14.016Z,2.97
2022-12-03T20:47:17.278Z,2.92
2022-12-03T20:50:19.621Z,2.89
2022-12-03T20:53:25.659Z,2.87
2022-12-03T20:56:39.646Z,2.84
2022-12-03T20:59:42.083Z,2.82
2022-12-03T21:02:45.249Z,2.93
2022-12-03T21:05:48.179Z,2.86
2022-12-03T21:08:52.093Z,2.94
2022-12-03T21:11:54.702Z,2.89
2022-12-03T21:14:56.938Z,2.82
2022-12-03T21:17:59.537Z,2.74
2022-12-03T21:21:02.495Z,2.73
2022-12-03T21:24:05.302Z,2.70
2022-12-03T21:27:07.471Z,2.63
2022-12-03T21:30:10.200Z,2.60
2022-12-03T21:33:12.417Z,2.62
2022-12-03T21:36:16.177Z,2.64
2022-12-03T21:39:19.381Z,2.70
2022-12-03T21:42:36.405Z,2.69
2022-12-03T21:45:39.939Z,2.65
2022-12-03T21:48:42.718Z,2.66
2022-12-03T21:51:46.099Z,2.66
2022-12-03T21:54:51.651Z,2.90
2022-12-03T21:57:53.856Z,2.93
2022-12-03T22:00:56.582Z,2.93
2022-12-03T22:03:59.072Z,2.91
2022-12-03T22:07:01.534Z,2.91
2022-12-03T22:10:05.153Z,2.97
2022-12-03T22:13:07.486Z,3.12
2022-12-03T22:16:11.279Z,3.15
2022-12-03T22:19:13.834Z,3.18
2022-12-03T22:22:16.857Z,3.22
2022-12-03T22:25:19.084Z,3.22
2022-12-03T22:28:21.578Z,3.23
2022-12-03T22:31:23.835Z,3.26
2022-12-03T22:34:26.497Z,3.34
2022-12-03T22:37:28.791Z,3.43
2022-12-03T22:40:31.658Z,3.46
2022-12-03T22:43:34.116Z,3.44
2022-12-03T22:46:36.738Z,3.37
2022-12-03T22:49:39.077Z,3.42
2022-12-03T22:52:41.596Z,3.54
2022-12-03T22:55:44.143Z,3.46
2022-12-03T22:58:46.679Z,3.30
2022-12-03T23:01:49.043Z,3.26
2022-12-03T23:04:54.587Z,3.22
2022-12-03T23:07:56.877Z,3.26
2022-12-03T23:11:00.102Z,3.25
2022-12-03T23:14:02.936Z,3.27
2022-12-03T23:17:05.391Z,3.30
2022-12-03T23:20:10.490Z,3.32
2022-12-03T23:23:13.338Z,3.28
2022-12-03T23:26:16.241Z,3.29
2022-12-03T23:29:18.759Z,3.25
2022-12-03T23:32:21.003Z,3.24
2022-12-03T23:35:23.501Z,3.15
2022-12-03T23:38:25.736Z,3.06
2022-12-03T23:41:28.254Z,3.03
2022-12-03T23:44:32.970Z,3.07
2022-12-03T23:47:35.481Z,3.04
2022-12-03T23:50:41.349Z,2.95
2022-12-03T23:53:44.887Z,2.91
2022-12-03T23:56:47.202Z,2.83
2022-12-03T23:59:49.854Z,2.71
